sensor_id;sensor_type;location;lat;lon;timestamp;pressure;altitude;pressure_sealevel;temperature
30765;BMP180;494;48.744;10.106;2024-03-22T00:00:50;96206.00;;;6.30
30765;BMP180;494;48.744;10.106;2024-03-22T00:03:18;96104.00;;;8.20
30765;BMP180;494;48.744;10.106;2024-03-22T00:05:46;95520.00;;;8.10
30765;BMP180;494;48.744;10.106;2024-03-22T00:08:13;96234.00;;;5.90
30765;BMP180;494;48.744;10.106;2024-03-22T00:10:40;96451.00;;;8.00
30765;BMP180;494;48.744;10.106;2024-03-22T00:13:07;96389.00;;;8.00
30765;BMP180;494;48.744;10.106;2024-03-22T00:15:35;96248.00;;;7.80
30765;BMP180;494;48.744;10.106;2024-03-22T00:18:01;96016.00;;;7.90
30765;BMP180;494;48.744;10.106;2024-03-22T00:20:31;96393.00;;;7.90
30765;BMP180;494;48.744;10.106;2024-03-22T00:22:57;96380.00;;;7.60
30765;BMP180;494;48.744;10.106;2024-03-22T00:25:25;96401.00;;;7.80
30765;BMP180;494;48.744;10.106;2024-03-22T00:27:51;96183.00;;;7.80
30765;BMP180;494;48.744;10.106;2024-03-22T00:30:21;96458.00;;;7.00
30765;BMP180;494;48.744;10.106;2024-03-22T00:32:47;95885.00;;;4.60
30765;BMP180;494;48.744;10.106;2024-03-22T00:35:15;95944.00;;;7.70
30765;BMP180;494;48.744;10.106;2024-03-22T00:37:43;95242.00;;;7.80
30765;BMP180;494;48.744;10.106;2024-03-22T00:40:12;96372.00;;;7.60
30765;BMP180;494;48.744;10.106;2024-03-22T00:42:38;95448.00;;;7.70
30765;BMP180;494;48.744;10.106;2024-03-22T00:45:07;96351.00;;;7.60
30765;BMP180;494;48.744;10.106;2024-03-22T00:47:34;96367.00;;;7.70
30765;BMP180;494;48.744;10.106;2024-03-22T00:50:01;96393.00;;;6.10
30765;BMP180;494;48.744;10.106;2024-03-22T00:52:28;95893.00;;;7.50
30765;BMP180;494;48.744;10.106;2024-03-22T00:54:57;96320.00;;;7.50
30765;BMP180;494;48.744;10.106;2024-03-22T00:57:23;96438.00;;;7.40
30765;BMP180;494;48.744;10.106;2024-03-22T00:59:51;96067.00;;;3.40
30765;BMP180;494;48.744;10.106;2024-03-22T01:02:17;96138.00;;;7.40
30765;BMP180;494;48.744;10.106;2024-03-22T01:04:45;96295.00;;;7.40
30765;BMP180;494;48.744;10.106;2024-03-22T01:07:12;95980.00;;;7.50
30765;BMP180;494;48.744;10.106;2024-03-22T01:09:39;96323.00;;;7.40
30765;BMP180;494;48.744;10.106;2024-03-22T01:12:08;96315.00;;;7.40
30765;BMP180;494;48.744;10.106;2024-03-22T01:14:35;96218.00;;;7.40
30765;BMP180;494;48.744;10.106;2024-03-22T01:17:02;96354.00;;;6.60
30765;BMP180;494;48.744;10.106;2024-03-22T01:19:29;95345.00;;;5.80
30765;BMP180;494;48.744;10.106;2024-03-22T01:21:56;96046.00;;;7.50
30765;BMP180;494;48.744;10.106;2024-03-22T01:24:23;96176.00;;;7.40
30765;BMP180;494;48.744;10.106;2024-03-22T01:26:50;95360.00;;;5.80
30765;BMP180;494;48.744;10.106;2024-03-22T01:29:19;96311.00;;;7.40
30765;BMP180;494;48.744;10.106;2024-03-22T01:31:45;96302.00;;;7.30
30765;BMP180;494;48.744;10.106;2024-03-22T01:34:13;96366.00;;;7.30
30765;BMP180;494;48.744;10.106;2024-03-22T01:36:41;95471.00;;;6.80
30765;BMP180;494;48.744;10.106;2024-03-22T01:39:08;96162.00;;;7.20
30765;BMP180;494;48.744;10.106;2024-03-22T01:41:35;95808.00;;;7.20
30765;BMP180;494;48.744;10.106;2024-03-22T01:44:02;96055.00;;;5.50
30765;BMP180;494;48.744;10.106;2024-03-22T01:46:31;96313.00;;;7.10
30765;BMP180;494;48.744;10.106;2024-03-22T01:48:59;95714.00;;;7.10
30765;BMP180;494;48.744;10.106;2024-03-22T01:51:25;96023.00;;;7.10
30765;BMP180;494;48.744;10.106;2024-03-22T01:53:53;95499.00;;;7.00
30765;BMP180;494;48.744;10.106;2024-03-22T01:56:21;96350.00;;;5.20
30765;BMP180;494;48.744;10.106;2024-03-22T01:58:49;96460.00;;;7.00
30765;BMP180;494;48.744;10.106;2024-03-22T02:01:15;96094.00;;;6.90
30765;BMP180;494;48.744;10.106;2024-03-22T02:03:44;96369.00;;;6.90
30765;BMP180;494;48.744;10.106;2024-03-22T02:06:11;96401.00;;;7.00
30765;BMP180;494;48.744;10.106;2024-03-22T02:08:39;95834.00;;;6.80
30765;BMP180;494;48.744;10.106;2024-03-22T02:11:08;96217.00;;;6.80
30765;BMP180;494;48.744;10.106;2024-03-22T02:13:36;95971.00;;;6.80
30765;BMP180;494;48.744;10.106;2024-03-22T02:16:03;95328.00;;;6.70
30765;BMP180;494;48.744;10.106;2024-03-22T02:18:31;96389.00;;;6.60
30765;BMP180;494;48.744;10.106;2024-03-22T02:20:59;96285.00;;;6.40
30765;BMP180;494;48.744;10.106;2024-03-22T02:23:32;96428.00;;;6.50
30765;BMP180;494;48.744;10.106;2024-03-22T02:26:00;96369.00;;;6.20
30765;BMP180;494;48.744;10.106;2024-03-22T02:28:27;95426.00;;;6.20
30765;BMP180;494;48.744;10.106;2024-03-22T02:30:54;96327.00;;;6.20
30765;BMP180;494;48.744;10.106;2024-03-22T02:33:22;96150.00;;;6.10
30765;BMP180;494;48.744;10.106;2024-03-22T02:35:50;96282.00;;;5.90
30765;BMP180;494;48.744;10.106;2024-03-22T02:38:18;96150.00;;;6.20
30765;BMP180;494;48.744;10.106;2024-03-22T02:40:48;96259.00;;;6.20
30765;BMP180;494;48.744;10.106;2024-03-22T02:43:16;96256.00;;;6.30
30765;BMP180;494;48.744;10.106;2024-03-22T02:45:44;96123.00;;;6.30
30765;BMP180;494;48.744;10.106;2024-03-22T02:48:11;96264.00;;;6.20
30765;BMP180;494;48.744;10.106;2024-03-22T02:50:39;96130.00;;;6.20
30765;BMP180;494;48.744;10.106;2024-03-22T02:53:06;96389.00;;;6.20
30765;BMP180;494;48.744;10.106;2024-03-22T02:55:40;96238.00;;;6.30
30765;BMP180;494;48.744;10.106;2024-03-22T02:58:09;95916.00;;;6.30
30765;BMP180;494;48.744;10.106;2024-03-22T03:00:37;95580.00;;;6.30
30765;BMP180;494;48.744;10.106;2024-03-22T03:03:05;96246.00;;;6.20
30765;BMP180;494;48.744;10.106;2024-03-22T03:05:33;95291.00;;;5.90
30765;BMP180;494;48.744;10.106;2024-03-22T03:08:01;96046.00;;;4.80
30765;BMP180;494;48.744;10.106;2024-03-22T03:10:29;95815.00;;;6.20
30765;BMP180;494;48.744;10.106;2024-03-22T03:12:56;96239.00;;;6.20
30765;BMP180;494;48.744;10.106;2024-03-22T03:15:25;96082.00;;;6.10
30765;BMP180;494;48.744;10.106;2024-03-22T03:17:51;95765.00;;;6.10
30765;BMP180;494;48.744;10.106;2024-03-22T03:20:19;95847.00;;;3.60
30765;BMP180;494;48.744;10.106;2024-03-22T03:22:45;96264.00;;;6.10
30765;BMP180;494;48.744;10.106;2024-03-22T03:25:13;96093.00;;;6.10
30765;BMP180;494;48.744;10.106;2024-03-22T03:27:41;95866.00;;;5.50
30765;BMP180;494;48.744;10.106;2024-03-22T03:30:09;95778.00;;;6.10
30765;BMP180;494;48.744;10.106;2024-03-22T03:32:37;95774.00;;;6.10
30765;BMP180;494;48.744;10.106;2024-03-22T03:35:05;96173.00;;;6.10
30765;BMP180;494;48.744;10.106;2024-03-22T03:37:32;95765.00;;;4.80
30765;BMP180;494;48.744;10.106;2024-03-22T03:40:00;96283.00;;;5.40
30765;BMP180;494;48.744;10.106;2024-03-22T03:42:26;95503.00;;;4.20
30765;BMP180;494;48.744;10.106;2024-03-22T03:44:54;95863.00;;;6.00
30765;BMP180;494;48.744;10.106;2024-03-22T03:47:20;96248.00;;;4.90
30765;BMP180;494;48.744;10.106;2024-03-22T03:49:49;96192.00;;;6.00
30765;BMP180;494;48.744;10.106;2024-03-22T03:52:16;96188.00;;;4.90
30765;BMP180;494;48.744;10.106;2024-03-22T03:54:43;95948.00;;;6.00
30765;BMP180;494;48.744;10.106;2024-03-22T03:57:10;96174.00;;;4.90
30765;BMP180;494;48.744;10.106;2024-03-22T03:59:37;96120.00;;;6.00
30765;BMP180;494;48.744;10.106;2024-03-22T04:02:04;96084.00;;;6.00
30765;BMP180;494;48.744;10.106;2024-03-22T04:04:32;95828.00;;;6.00
30765;BMP180;494;48.744;10.106;2024-03-22T04:07:00;96052.00;;;6.10
30765;BMP180;494;48.744;10.106;2024-03-22T04:09:27;96193.00;;;6.00
30765;BMP180;494;48.744;10.106;2024-03-22T04:11:53;96074.00;;;5.10
30765;BMP180;494;48.744;10.106;2024-03-22T04:14:25;96345.00;;;3.70
30765;BMP180;494;48.744;10.106;2024-03-22T04:16:51;96185.00;;;5.90
30765;BMP180;494;48.744;10.106;2024-03-22T04:19:21;96347.00;;;5.90
30765;BMP180;494;48.744;10.106;2024-03-22T04:21:49;96179.00;;;5.90
30765;BMP180;494;48.744;10.106;2024-03-22T04:24:18;96106.00;;;5.80
30765;BMP180;494;48.744;10.106;2024-03-22T04:26:45;96153.00;;;5.70
30765;BMP180;494;48.744;10.106;2024-03-22T04:29:12;96017.00;;;5.70
30765;BMP180;494;48.744;10.106;2024-03-22T04:31:39;96210.00;;;4.80
30765;BMP180;494;48.744;10.106;2024-03-22T04:34:06;95972.00;;;5.60
30765;BMP180;494;48.744;10.106;2024-03-22T04:36:33;96248.00;;;5.70
30765;BMP180;494;48.744;10.106;2024-03-22T04:39:01;96216.00;;;4.40
30765;BMP180;494;48.744;10.106;2024-03-22T04:41:31;95644.00;;;4.20
30765;BMP180;494;48.744;10.106;2024-03-22T04:43:59;96310.00;;;5.50
30765;BMP180;494;48.744;10.106;2024-03-22T04:46:26;96236.00;;;5.60
30765;BMP180;494;48.744;10.106;2024-03-22T04:48:53;95769.00;;;5.60
30765;BMP180;494;48.744;10.106;2024-03-22T04:51:20;96095.00;;;5.60
30765;BMP180;494;48.744;10.106;2024-03-22T04:53:47;96248.00;;;4.30
30765;BMP180;494;48.744;10.106;2024-03-22T04:56:14;95197.00;;;5.10
30765;BMP180;494;48.744;10.106;2024-03-22T04:58:42;96205.00;;;5.70
30765;BMP180;494;48.744;10.106;2024-03-22T05:01:10;95767.00;;;5.70
30765;BMP180;494;48.744;10.106;2024-03-22T05:03:38;96118.00;;;5.20
30765;BMP180;494;48.744;10.106;2024-03-22T05:06:07;96233.00;;;5.60
30765;BMP180;494;48.744;10.106;2024-03-22T05:08:33;96199.00;;;5.70
30765;BMP180;494;48.744;10.106;2024-03-22T05:11:01;96201.00;;;5.70
30765;BMP180;494;48.744;10.106;2024-03-22T05:13:27;95868.00;;;5.70
30765;BMP180;494;48.744;10.106;2024-03-22T05:15:56;96115.00;;;5.70
30765;BMP180;494;48.744;10.106;2024-03-22T05:18:23;95830.00;;;5.70
30765;BMP180;494;48.744;10.106;2024-03-22T05:20:50;95766.00;;;5.60
30765;BMP180;494;48.744;10.106;2024-03-22T05:23:17;96091.00;;;5.70
30765;BMP180;494;48.744;10.106;2024-03-22T05:25:44;96094.00;;;5.60
30765;BMP180;494;48.744;10.106;2024-03-22T05:28:11;95106.00;;;5.60
30765;BMP180;494;48.744;10.106;2024-03-22T05:30:38;96212.00;;;5.80
30765;BMP180;494;48.744;10.106;2024-03-22T05:33:06;95837.00;;;3.60
30765;BMP180;494;48.744;10.106;2024-03-22T05:35:33;96049.00;;;5.10
30765;BMP180;494;48.744;10.106;2024-03-22T05:38:00;95517.00;;;4.90
30765;BMP180;494;48.744;10.106;2024-03-22T05:40:27;96090.00;;;5.80
30765;BMP180;494;48.744;10.106;2024-03-22T05:42:54;96122.00;;;5.70
30765;BMP180;494;48.744;10.106;2024-03-22T05:45:21;96190.00;;;5.20
30765;BMP180;494;48.744;10.106;2024-03-22T05:47:48;96267.00;;;5.90
30765;BMP180;494;48.744;10.106;2024-03-22T05:50:17;96154.00;;;6.00
30765;BMP180;494;48.744;10.106;2024-03-22T05:52:43;95546.00;;;6.00
30765;BMP180;494;48.744;10.106;2024-03-22T05:55:11;95602.00;;;5.20
30765;BMP180;494;48.744;10.106;2024-03-22T05:57:37;95024.00;;;6.00
30765;BMP180;494;48.744;10.106;2024-03-22T06:00:06;96172.00;;;6.10
30765;BMP180;494;48.744;10.106;2024-03-22T06:02:34;95974.00;;;6.10
30765;BMP180;494;48.744;10.106;2024-03-22T06:05:01;96113.00;;;6.20
30765;BMP180;494;48.744;10.106;2024-03-22T06:07:29;96162.00;;;6.30
30765;BMP180;494;48.744;10.106;2024-03-22T06:10:06;96143.00;;;6.40
30765;BMP180;494;48.744;10.106;2024-03-22T06:12:33;95763.00;;;6.50
30765;BMP180;494;48.744;10.106;2024-03-22T06:15:00;96047.00;;;6.70
30765;BMP180;494;48.744;10.106;2024-03-22T06:17:26;96053.00;;;6.90
30765;BMP180;494;48.744;10.106;2024-03-22T06:19:54;95245.00;;;4.40
30765;BMP180;494;48.744;10.106;2024-03-22T06:22:21;95868.00;;;7.10
30765;BMP180;494;48.744;10.106;2024-03-22T06:24:50;95990.00;;;7.10
30765;BMP180;494;48.744;10.106;2024-03-22T06:27:17;95716.00;;;7.30
30765;BMP180;494;48.744;10.106;2024-03-22T06:29:44;95336.00;;;7.20
30765;BMP180;494;48.744;10.106;2024-03-22T06:32:11;95649.00;;;7.60
30765;BMP180;494;48.744;10.106;2024-03-22T06:34:38;96280.00;;;7.40
30765;BMP180;494;48.744;10.106;2024-03-22T06:37:05;95622.00;;;7.80
30765;BMP180;494;48.744;10.106;2024-03-22T06:39:32;96022.00;;;7.10
30765;BMP180;494;48.744;10.106;2024-03-22T06:42:00;95903.00;;;7.00
30765;BMP180;494;48.744;10.106;2024-03-22T06:44:27;95714.00;;;8.10
30765;BMP180;494;48.744;10.106;2024-03-22T06:46:54;95992.00;;;8.10
30765;BMP180;494;48.744;10.106;2024-03-22T06:49:21;96029.00;;;6.90
30765;BMP180;494;48.744;10.106;2024-03-22T06:51:48;95954.00;;;8.60
30765;BMP180;494;48.744;10.106;2024-03-22T06:54:15;96012.00;;;8.20
30765;BMP180;494;48.744;10.106;2024-03-22T06:56:42;95303.00;;;7.50
30765;BMP180;494;48.744;10.106;2024-03-22T06:59:11;95254.00;;;9.10
30765;BMP180;494;48.744;10.106;2024-03-22T07:01:37;96193.00;;;9.20
30765;BMP180;494;48.744;10.106;2024-03-22T07:04:05;95886.00;;;9.40
30765;BMP180;494;48.744;10.106;2024-03-22T07:06:31;96140.00;;;9.50
30765;BMP180;494;48.744;10.106;2024-03-22T07:08:59;95900.00;;;9.60
30765;BMP180;494;48.744;10.106;2024-03-22T07:11:26;96070.00;;;8.80
30765;BMP180;494;48.744;10.106;2024-03-22T07:13:53;96132.00;;;9.90
30765;BMP180;494;48.744;10.106;2024-03-22T07:16:21;95727.00;;;9.70
30765;BMP180;494;48.744;10.106;2024-03-22T07:18:49;96041.00;;;8.60
30765;BMP180;494;48.744;10.106;2024-03-22T07:21:15;96015.00;;;8.80
30765;BMP180;494;48.744;10.106;2024-03-22T07:23:42;95886.00;;;10.20
30765;BMP180;494;48.744;10.106;2024-03-22T07:26:09;96015.00;;;9.40
30765;BMP180;494;48.744;10.106;2024-03-22T07:28:37;95059.00;;;8.50
30765;BMP180;494;48.744;10.106;2024-03-22T07:31:04;96082.00;;;10.30
30765;BMP180;494;48.744;10.106;2024-03-22T07:33:33;95817.00;;;9.80
30765;BMP180;494;48.744;10.106;2024-03-22T07:36:02;95227.00;;;10.90
30765;BMP180;494;48.744;10.106;2024-03-22T07:38:32;95343.00;;;10.90
30765;BMP180;494;48.744;10.106;2024-03-22T07:40:59;95988.00;;;11.00
30765;BMP180;494;48.744;10.106;2024-03-22T07:43:27;96065.00;;;11.50
30765;BMP180;494;48.744;10.106;2024-03-22T07:45:53;95861.00;;;11.70
30765;BMP180;494;48.744;10.106;2024-03-22T07:48:21;96079.00;;;12.00
30765;BMP180;494;48.744;10.106;2024-03-22T07:50:56;96072.00;;;12.20
30765;BMP180;494;48.744;10.106;2024-03-22T07:53:23;95833.00;;;12.50
30765;BMP180;494;48.744;10.106;2024-03-22T07:55:50;96047.00;;;12.70
30765;BMP180;494;48.744;10.106;2024-03-22T07:58:18;96070.00;;;13.00
30765;BMP180;494;48.744;10.106;2024-03-22T08:00:45;95996.00;;;13.20
30765;BMP180;494;48.744;10.106;2024-03-22T08:03:16;95081.00;;;13.40
30765;BMP180;494;48.744;10.106;2024-03-22T08:05:43;95551.00;;;13.10
30765;BMP180;494;48.744;10.106;2024-03-22T08:08:12;95887.00;;;13.60
30765;BMP180;494;48.744;10.106;2024-03-22T08:10:38;96114.00;;;12.50
30765;BMP180;494;48.744;10.106;2024-03-22T08:13:06;95384.00;;;13.80
30765;BMP180;494;48.744;10.106;2024-03-22T08:15:32;96022.00;;;14.00
30765;BMP180;494;48.744;10.106;2024-03-22T08:18:00;96081.00;;;12.30
30765;BMP180;494;48.744;10.106;2024-03-22T08:20:27;95366.00;;;13.90
30765;BMP180;494;48.744;10.106;2024-03-22T08:22:54;96038.00;;;14.30
30765;BMP180;494;48.744;10.106;2024-03-22T08:25:22;96036.00;;;14.50
30765;BMP180;494;48.744;10.106;2024-03-22T08:27:51;96053.00;;;14.70
30765;BMP180;494;48.744;10.106;2024-03-22T08:30:21;95638.00;;;15.00
30765;BMP180;494;48.744;10.106;2024-03-22T08:32:49;96003.00;;;15.30
30765;BMP180;494;48.744;10.106;2024-03-22T08:35:15;95800.00;;;15.40
30765;BMP180;494;48.744;10.106;2024-03-22T08:37:43;95976.00;;;15.70
30765;BMP180;494;48.744;10.106;2024-03-22T08:40:12;96062.00;;;16.30
30765;BMP180;494;48.744;10.106;2024-03-22T08:42:41;95986.00;;;16.50
30765;BMP180;494;48.744;10.106;2024-03-22T08:45:09;96143.00;;;16.80
30765;BMP180;494;48.744;10.106;2024-03-22T08:47:43;95984.00;;;17.20
30765;BMP180;494;48.744;10.106;2024-03-22T08:50:12;95939.00;;;17.50
30765;BMP180;494;48.744;10.106;2024-03-22T08:52:41;95866.00;;;16.20
30765;BMP180;494;48.744;10.106;2024-03-22T08:55:07;96120.00;;;16.90
30765;BMP180;494;48.744;10.106;2024-03-22T08:57:37;95878.00;;;15.50
30765;BMP180;494;48.744;10.106;2024-03-22T09:00:07;95912.00;;;17.70
30765;BMP180;494;48.744;10.106;2024-03-22T09:02:35;96027.00;;;17.60
30765;BMP180;494;48.744;10.106;2024-03-22T09:05:01;96020.00;;;17.90
30765;BMP180;494;48.744;10.106;2024-03-22T09:07:29;95797.00;;;16.20
30765;BMP180;494;48.744;10.106;2024-03-22T09:09:55;96080.00;;;17.70
30765;BMP180;494;48.744;10.106;2024-03-22T09:12:23;95437.00;;;16.70
30765;BMP180;494;48.744;10.106;2024-03-22T09:14:50;95320.00;;;18.20
30765;BMP180;494;48.744;10.106;2024-03-22T09:17:20;95888.00;;;17.10
30765;BMP180;494;48.744;10.106;2024-03-22T09:19:46;96081.00;;;18.10
30765;BMP180;494;48.744;10.106;2024-03-22T09:22:14;96053.00;;;18.30
30765;BMP180;494;48.744;10.106;2024-03-22T09:24:42;96085.00;;;19.60
30765;BMP180;494;48.744;10.106;2024-03-22T09:27:09;96113.00;;;19.60
30765;BMP180;494;48.744;10.106;2024-03-22T09:29:37;95486.00;;;20.10
30765;BMP180;494;48.744;10.106;2024-03-22T09:32:05;96058.00;;;20.30
30765;BMP180;494;48.744;10.106;2024-03-22T09:34:34;95917.00;;;20.80
30765;BMP180;494;48.744;10.106;2024-03-22T09:37:01;95762.00;;;20.20
30765;BMP180;494;48.744;10.106;2024-03-22T09:39:28;95625.00;;;20.50
30765;BMP180;494;48.744;10.106;2024-03-22T09:41:58;95749.00;;;18.00
30765;BMP180;494;48.744;10.106;2024-03-22T09:44:28;95905.00;;;20.70
30765;BMP180;494;48.744;10.106;2024-03-22T09:46:56;95545.00;;;20.40
30765;BMP180;494;48.744;10.106;2024-03-22T09:49:31;96178.00;;;19.50
30765;BMP180;494;48.744;10.106;2024-03-22T09:52:00;96060.00;;;21.30
30765;BMP180;494;48.744;10.106;2024-03-22T09:54:28;95986.00;;;21.40
30765;BMP180;494;48.744;10.106;2024-03-22T09:56:57;95940.00;;;21.30
30765;BMP180;494;48.744;10.106;2024-03-22T09:59:25;95501.00;;;21.30
30765;BMP180;494;48.744;10.106;2024-03-22T10:01:53;95806.00;;;21.20
30765;BMP180;494;48.744;10.106;2024-03-22T10:04:21;95845.00;;;21.50
30765;BMP180;494;48.744;10.106;2024-03-22T10:06:47;95562.00;;;19.90
30765;BMP180;494;48.744;10.106;2024-03-22T10:09:17;95965.00;;;21.70
30765;BMP180;494;48.744;10.106;2024-03-22T10:11:44;95310.00;;;22.10
30765;BMP180;494;48.744;10.106;2024-03-22T10:14:12;95998.00;;;22.10
30765;BMP180;494;48.744;10.106;2024-03-22T10:16:39;96018.00;;;23.30
30765;BMP180;494;48.744;10.106;2024-03-22T10:19:07;96053.00;;;23.80
30765;BMP180;494;48.744;10.106;2024-03-22T10:21:34;95809.00;;;23.80
30765;BMP180;494;48.744;10.106;2024-03-22T10:24:02;96062.00;;;23.60
30765;BMP180;494;48.744;10.106;2024-03-22T10:26:33;95848.00;;;24.00
30765;BMP180;494;48.744;10.106;2024-03-22T10:29:00;95978.00;;;22.00
30765;BMP180;494;48.744;10.106;2024-03-22T10:31:28;95875.00;;;24.20
30765;BMP180;494;48.744;10.106;2024-03-22T10:33:56;95829.00;;;24.30
30765;BMP180;494;48.744;10.106;2024-03-22T10:36:23;95976.00;;;24.40
30765;BMP180;494;48.744;10.106;2024-03-22T10:38:54;95644.00;;;24.60
30765;BMP180;494;48.744;10.106;2024-03-22T10:41:21;95520.00;;;23.70
30765;BMP180;494;48.744;10.106;2024-03-22T10:43:52;95307.00;;;22.80
30765;BMP180;494;48.744;10.106;2024-03-22T10:46:20;95354.00;;;23.50
30765;BMP180;494;48.744;10.106;2024-03-22T10:48:49;95529.00;;;24.20
30765;BMP180;494;48.744;10.106;2024-03-22T10:51:16;95848.00;;;24.20
30765;BMP180;494;48.744;10.106;2024-03-22T10:53:45;95679.00;;;24.30
30765;BMP180;494;48.744;10.106;2024-03-22T10:56:16;95940.00;;;25.00
30765;BMP180;494;48.744;10.106;2024-03-22T10:58:44;95433.00;;;24.50
30765;BMP180;494;48.744;10.106;2024-03-22T11:01:24;95369.00;;;26.10
30765;BMP180;494;48.744;10.106;2024-03-22T11:03:51;95989.00;;;26.60
30765;BMP180;494;48.744;10.106;2024-03-22T11:06:31;95824.00;;;26.60
30765;BMP180;494;48.744;10.106;2024-03-22T11:09:00;95870.00;;;27.20
30765;BMP180;494;48.744;10.106;2024-03-22T11:11:28;95874.00;;;27.70
30765;BMP180;494;48.744;10.106;2024-03-22T11:13:57;95972.00;;;27.80
30765;BMP180;494;48.744;10.106;2024-03-22T11:16:25;95949.00;;;27.70
30765;BMP180;494;48.744;10.106;2024-03-22T11:18:53;95899.00;;;27.90
30765;BMP180;494;48.744;10.106;2024-03-22T11:21:20;95864.00;;;28.60
30765;BMP180;494;48.744;10.106;2024-03-22T11:23:49;95778.00;;;28.50
30765;BMP180;494;48.744;10.106;2024-03-22T11:26:19;95475.00;;;28.50
30765;BMP180;494;48.744;10.106;2024-03-22T11:28:47;95916.00;;;27.90
30765;BMP180;494;48.744;10.106;2024-03-22T11:31:13;95884.00;;;27.20
30765;BMP180;494;48.744;10.106;2024-03-22T11:33:44;95881.00;;;27.70
30765;BMP180;494;48.744;10.106;2024-03-22T11:36:13;95910.00;;;28.50
30765;BMP180;494;48.744;10.106;2024-03-22T11:38:42;95856.00;;;27.70
30765;BMP180;494;48.744;10.106;2024-03-22T11:41:09;95841.00;;;27.10
30765;BMP180;494;48.744;10.106;2024-03-22T11:43:40;95675.00;;;28.80
30765;BMP180;494;48.744;10.106;2024-03-22T11:46:06;95874.00;;;28.40
30765;BMP180;494;48.744;10.106;2024-03-22T11:48:39;95781.00;;;29.30
30765;BMP180;494;48.744;10.106;2024-03-22T11:51:08;95757.00;;;29.60
30765;BMP180;494;48.744;10.106;2024-03-22T11:53:36;95353.00;;;29.20
30765;BMP180;494;48.744;10.106;2024-03-22T11:56:08;95905.00;;;29.60
30765;BMP180;494;48.744;10.106;2024-03-22T11:58:40;95793.00;;;29.40
30765;BMP180;494;48.744;10.106;2024-03-22T12:01:07;95775.00;;;29.20
30765;BMP180;494;48.744;10.106;2024-03-22T12:03:34;95656.00;;;29.10
30765;BMP180;494;48.744;10.106;2024-03-22T12:06:01;95945.00;;;29.40
30765;BMP180;494;48.744;10.106;2024-03-22T12:08:32;95763.00;;;28.50
30765;BMP180;494;48.744;10.106;2024-03-22T12:11:02;95908.00;;;26.90
30765;BMP180;494;48.744;10.106;2024-03-22T12:13:30;95753.00;;;26.00
30765;BMP180;494;48.744;10.106;2024-03-22T12:16:00;95873.00;;;25.30
30765;BMP180;494;48.744;10.106;2024-03-22T12:18:28;95612.00;;;24.00
30765;BMP180;494;48.744;10.106;2024-03-22T12:20:54;95583.00;;;26.90
30765;BMP180;494;48.744;10.106;2024-03-22T12:23:22;95789.00;;;27.70
30765;BMP180;494;48.744;10.106;2024-03-22T12:25:51;95599.00;;;28.00
30765;BMP180;494;48.744;10.106;2024-03-22T12:28:20;95361.00;;;28.20
30765;BMP180;494;48.744;10.106;2024-03-22T12:30:47;95731.00;;;28.20
30765;BMP180;494;48.744;10.106;2024-03-22T12:33:14;95832.00;;;27.10
30765;BMP180;494;48.744;10.106;2024-03-22T12:35:44;95427.00;;;26.60
30765;BMP180;494;48.744;10.106;2024-03-22T12:38:14;95821.00;;;26.10
30765;BMP180;494;48.744;10.106;2024-03-22T12:40:41;95409.00;;;26.70
30765;BMP180;494;48.744;10.106;2024-03-22T12:43:11;95774.00;;;26.70
30765;BMP180;494;48.744;10.106;2024-03-22T12:45:37;95786.00;;;26.20
30765;BMP180;494;48.744;10.106;2024-03-22T12:48:05;95293.00;;;26.80
30765;BMP180;494;48.744;10.106;2024-03-22T12:50:32;95396.00;;;25.60
30765;BMP180;494;48.744;10.106;2024-03-22T12:53:00;95665.00;;;27.10
30765;BMP180;494;48.744;10.106;2024-03-22T12:55:27;95484.00;;;27.70
30765;BMP180;494;48.744;10.106;2024-03-22T12:57:57;95103.00;;;27.00
30765;BMP180;494;48.744;10.106;2024-03-22T13:00:28;95783.00;;;28.30
30765;BMP180;494;48.744;10.106;2024-03-22T13:03:02;95723.00;;;28.30
30765;BMP180;494;48.744;10.106;2024-03-22T13:05:29;95216.00;;;26.50
30765;BMP180;494;48.744;10.106;2024-03-22T13:07:58;95745.00;;;27.00
30765;BMP180;494;48.744;10.106;2024-03-22T13:10:25;95174.00;;;27.20
30765;BMP180;494;48.744;10.106;2024-03-22T13:12:53;95682.00;;;26.80
30765;BMP180;494;48.744;10.106;2024-03-22T13:15:48;95322.00;;;23.70
30765;BMP180;494;48.744;10.106;2024-03-22T13:18:16;95832.00;;;24.60
30765;BMP180;494;48.744;10.106;2024-03-22T13:20:42;95708.00;;;23.60
30765;BMP180;494;48.744;10.106;2024-03-22T13:23:10;95308.00;;;24.00
30765;BMP180;494;48.744;10.106;2024-03-22T13:25:37;95584.00;;;24.00
30765;BMP180;494;48.744;10.106;2024-03-22T13:28:05;95691.00;;;23.80
30765;BMP180;494;48.744;10.106;2024-03-22T13:30:32;95320.00;;;23.80
30765;BMP180;494;48.744;10.106;2024-03-22T13:33:03;95567.00;;;23.90
30765;BMP180;494;48.744;10.106;2024-03-22T13:35:30;95614.00;;;24.30
30765;BMP180;494;48.744;10.106;2024-03-22T13:37:59;95234.00;;;24.30
30765;BMP180;494;48.744;10.106;2024-03-22T13:40:26;95573.00;;;24.80
30765;BMP180;494;48.744;10.106;2024-03-22T13:42:54;95648.00;;;25.10
30765;BMP180;494;48.744;10.106;2024-03-22T13:45:21;95635.00;;;25.50
30765;BMP180;494;48.744;10.106;2024-03-22T13:47:50;95228.00;;;25.40
30765;BMP180;494;48.744;10.106;2024-03-22T13:50:18;95269.00;;;25.30
30765;BMP180;494;48.744;10.106;2024-03-22T13:52:45;95492.00;;;24.90
30765;BMP180;494;48.744;10.106;2024-03-22T13:55:12;95257.00;;;24.80
30765;BMP180;494;48.744;10.106;2024-03-22T13:57:39;95655.00;;;24.20
30765;BMP180;494;48.744;10.106;2024-03-22T14:00:07;95543.00;;;24.50
30765;BMP180;494;48.744;10.106;2024-03-22T14:02:40;95459.00;;;24.70
30765;BMP180;494;48.744;10.106;2024-03-22T14:05:07;95531.00;;;25.10
30765;BMP180;494;48.744;10.106;2024-03-22T14:07:37;95570.00;;;25.80
30765;BMP180;494;48.744;10.106;2024-03-22T14:10:07;95605.00;;;25.90
30765;BMP180;494;48.744;10.106;2024-03-22T14:12:35;95500.00;;;26.90
30765;BMP180;494;48.744;10.106;2024-03-22T14:15:01;95309.00;;;27.50
30765;BMP180;494;48.744;10.106;2024-03-22T14:17:30;95593.00;;;26.70
30765;BMP180;494;48.744;10.106;2024-03-22T14:19:56;95513.00;;;27.40
30765;BMP180;494;48.744;10.106;2024-03-22T14:22:25;95586.00;;;28.00
30765;BMP180;494;48.744;10.106;2024-03-22T14:24:53;95618.00;;;28.70
30765;BMP180;494;48.744;10.106;2024-03-22T14:27:21;95592.00;;;29.80
30765;BMP180;494;48.744;10.106;2024-03-22T14:29:48;95351.00;;;31.10
30765;BMP180;494;48.744;10.106;2024-03-22T14:32:15;95542.00;;;30.70